Air Resources Laboratory banner image
Air Resources Laboratory web site National Oceanic and Atmospheric Administration (NOAA)

ne metar


KAIA 160853Z AUTO 25004KT 10SM CLR M04/M12 A2974 RMK AO2 SLP076 T10441117 53001=
KANW 160855Z AUTO 29007KT 10SM CLR 00/M04 A2971 RMK AO2 T00021037=
KAUH 160855Z AUTO 24010KT 10SM CLR 00/M07 A2973 RMK AO2 T00001067=
KBBW 160853Z AUTO 12003KT 10SM CLR 04/M08 A2973 RMK AO2 SLP069 T00441078 53003=
KBFF 160853Z AUTO 31005KT 10SM CLR 02/M13 A2974 RMK AO2 SLP064 T00221128 55004=
KBIE 160855Z AUTO 20008KT 10SM CLR 03/M04 A2978 RMK AO2 T00271042=
KCDR 160853Z AUTO 23009KT 10SM CLR M03/M09 A2974 RMK AO2 SLP088 T10331089 53001=
KEAR 160856Z AUTO 27005KT 10SM CLR 01/M11 A2974 RMK AO2 SLP076 T00061106 55001
 FZRANO=
KFET 160855Z AUTO 23005KT 10SM CLR 03/M06 A2973 RMK AO2 T00321060=
KFNB 160853Z AUTO 19005KT 10SM CLR 02/M05 A2981 RMK AO2 SLP097 T00221050 55006=
KGRI 160853Z AUTO 24007KT 10SM CLR 01/M07 A2973 RMK AO2 SLP081 T00061072 55000=
KHDE 160855Z AUTO 00000KT 10SM CLR 00/M11 A2974 RMK AO2 T10021107=
KHSI 160853Z AUTO 23005KT 10SM CLR 01/M09 A2974 RMK AO2 SLP080 T00061094 56001=
KIML 160853Z AUTO 00000KT 10SM CLR M02/M11 A2976 RMK AO2 SLP082 T10171106 55003=
KLBF 160853Z AUTO 29005KT 10SM CLR M05/M08 A2976 RMK AO2 SLP086 T10501083 53000=
KLNK 160854Z AUTO 18004KT 10SM CLR 02/M07 A2976 RMK AO2 SLP084 T00171067 53001=
KLXN 160855Z AUTO 31005KT 10SM CLR M04/M09 A2975 RMK AO2 T10401092=
KMCK 160853Z AUTO 26004KT 10SM CLR M02/M11 A2976 RMK AO2 SLP083 T10221111 55002=
KODX 160853Z AUTO 25003KT 10SM CLR M05/M07 A2971 RMK AO2 SLP078 T10501072 53003=
KOFF 160856Z AUTO 14007KT 10SM CLR M01/M06 A2974 RMK AO2 SLP082 T10071057 50002
 $=
KOFK 160856Z AUTO 29003KT 10SM CLR M03/M07 A2969 RMK AO2 SLP067 T10281067 53002=
KOGA 160855Z AUTO 00000KT 10SM CLR M01/M08 A2976 RMK AO2 T10141077=
KOLU 160856Z AUTO 24003KT 10SM CLR 00/M06 A2973 RMK AO2 SLP080 T00001056 53003
 FZRANO=
KOMA 160852Z 16008KT 10SM SCT250 00/M06 A2974 RMK AO2 SLP075 T00001056 53001=
KONL 160855Z AUTO 29005KT 10SM CLR 01/M03 A2970 RMK AO2 T00081035=
KSNY 160853Z AUTO 31012KT 10SM CLR M03/M13 A2976 RMK AO2 SLP075 T10331133 56005=
KTQE 160854Z AUTO 17007KT 10SM CLR M01/M07 A2972 RMK AO2 SLP065 T10111072 53004=
KVTN 160852Z AUTO 26005KT 10SM CLR M01/M05 A2972 RMK AO2 SLP074 T10061050 53005=